x

Southeast Bering Sea -205nm Wnw Of Dutch Harbor, Ak (46073) Wave Buoy

1:50am - Fri 30th Sep 2016 All times are UTC.

  • Sig Wave height 14.8ft
  • Swell Direction
  • Peak Period 9s
  • Average Period 8s
  • Wind
    27mph, 34mph gusts
  • Sea Temp 49°f
  • 空気 Temp 51°f
  • Sea Pressure 1010.3mb

More Historic Weather Station data

Upgrade to MSW Pro to gain access to the past 30 days of data for over 8000 Wavebouys and Weather Stations around the globe.

Join Pro

Comparision Forecast

View Surf forecast
   
Fri 09/30 1:50am 15ft 9s 8s 27 34 mph 1010.3mb 49f 51f
12:50am 14ft 10s 8s 27 34 mph 1010.9mb 49f 51f
Thu 09/29 11:50pm 15ft 10s 8s 27 34 mph 1011.5mb 49f 51f
10:50pm 14.5ft 10s 8s 29 36 mph 1011.8mb 49f 51f
9:50pm 16.5ft 9s 8s 29 36 mph 1012.4mb 49f 51f
8:50pm 15ft 9s 8s 31 38 mph 1012.8mb 49f 52f
7:50pm 14ft 10s 7s 31 38 mph 1013mb 49f 51f
6:50pm 14ft 9s 7s 31 40 mph 1013.3mb 49f 51f
5:50pm 13ft 8s 7s 31 38 mph 1013.7mb 49f 51f
4:50pm 12ft 8s 6s 34 40 mph 1014.3mb 49f 51f
3:50pm 10.5ft 8s 6s 34 40 mph 1015.1mb 49f 50f
2:50pm 10ft 8s 6s 36 45 mph 1015.8mb 49f 50f
1:50pm 9ft 7s 6s 31 38 mph 1017mb 49f 50f
12:50pm 8ft 8s 6s 29 36 mph 1018.6mb 49f 50f
11:50am 8ft 7s 6s 27 34 mph 1020.1mb 49f 50f
10:50am 8ft 7s 6s 27 34 mph 1021.3mb 49f 50f
9:50am 7.5ft 6s 6s 27 34 mph 1022.5mb 49f 51f
8:50am 7ft 7s 6s 25 34 mph 1023.1mb 49f 51f
7:50am 6ft 6s 6s 22 29 mph 1024mb 49f 51f
6:50am 6ft 6s 6s 25 29 mph 1024.5mb 49f 51f
5:50am 6ft 9s 5s 25 29 mph 1025mb 49f 51f
4:50am 6ft 10s 5s 22 27 mph 1025.4mb 49f 50f
3:50am 6.5ft 10s 6s 22 27 mph 1025.9mb 49f 50f
2:50am 6ft 8s 6s 20 25 mph 1026.3mb 49f 50f
1:50am 6.5ft 9s 6s 18 22 mph 1027mb 49f 50f
12:50am 6ft 9s 6s 16 20 mph 1027.6mb 49f 51f
Wed 09/28 11:50pm 6.5ft 9s 7s 16 18 mph 1028.3mb 49f 50f
10:50pm 6ft 10s 7s 16 20 mph 1028.6mb 49f 50f
9:50pm 6ft 10s 7s 16 20 mph 1028.7mb 49f 50f
8:50pm 6.5ft 10s 7s 16 20 mph 1029mb 49f 50f
7:50pm 6.5ft 10s 7s 13 16 mph 1029.1mb 49f 51f
6:50pm 7ft 10s 7s 13 16 mph 1029.1mb 49f 50f
5:50pm 8ft 11s 7s 13 16 mph 1029mb 49f 50f
4:50pm 7.5ft 11s 7s 13 18 mph 1028.5mb 49f 50f
3:50pm 9ft 10s 7s 16 18 mph 1028mb 49f 51f
2:50pm 9ft 10s 7s 16 18 mph 1027.8mb 49f 51f
1:50pm 10ft 10s 7s 16 18 mph 1027.6mb 49f 51f
12:50pm 8.5ft 11s 7s 16 18 mph 1027.5mb 49f 50f
11:50am 9ft 10s 7s 16 18 mph 1027.4mb 49f 51f
10:50am 9ft 10s 7s 13 18 mph 1027.3mb 49f 51f
9:50am 7ft 10s 7s 16 18 mph 1027.1mb 49f 51f
8:50am 7ft 8s 6s 16 18 mph 1026.7mb 49f 51f
7:50am 7ft 8s 6s 18 20 mph 1026.1mb 49f 51f
6:50am 6ft 8s 6s 22 25 mph 1025.3mb 50f 51f
5:50am 6ft 9s 6s 20 25 mph 1025.3mb 50f 51f
4:50am 5.5ft 8s 5s 18 22 mph 1024.9mb 50f 51f
3:50am 6ft 7s 5s 18 22 mph 1024.6mb 50f 51f
2:50am 6.5ft 6s 5s 18 22 mph 1024.6mb 50f 50f
1:50am 6ft 6s 5s 20 27 mph 1024.2mb 50f 50f
12:50am 6ft 6s 5s 22 29 mph 1024mb 50f 49f
Tue 09/27 11:50pm 5.5ft 6s 5s 22 27 mph 1024.1mb 50f 49f
10:50pm 5.5ft 6s 5s 20 27 mph 1024.1mb 50f 49f
9:50pm 5ft 6s 5s 20 25 mph 1023.9mb 50f 50f
8:50pm 5ft 8s 5s 20 22 mph 1024mb 50f 50f
7:50pm 4.5ft 8s 5s 22 25 mph 1023.6mb 50f 49f
6:50pm 4.5ft 5s 5s 20 22 mph 1023.5mb 50f 49f
5:50pm 4.5ft 7s 5s 16 20 mph 1023.6mb 50f 48f
4:50pm 4.5ft 7s 5s 18 22 mph 1023.6mb 50f 48f
3:50pm 4.5ft 7s 5s 20 25 mph 1023.4mb 50f 48f
2:50pm 4.5ft 7s 5s 18 20 mph 1023.5mb 50f 47f
1:50pm 4.5ft 7s 5s 16 20 mph 1023.9mb 50f 48f
12:50pm 4.5ft 7s 5s 16 20 mph 1023.6mb 50f 48f
11:50am 5ft 7s 6s 16 18 mph 1023.4mb 50f 49f
10:50am 5ft 7s 6s 13 16 mph 1023.6mb 50f 49f
9:50am 4.5ft 8s 6s 9 11 mph 1023.5mb 50f 50f
8:50am 5ft 8s 6s 7 9 mph 1023.3mb 50f 50f
7:50am 5ft 8s 6s 7 13 mph 1023.2mb 50f 49f
6:50am 5ft 8s 6s 7
mph
1022.9mb 50f 49f
5:50am 5.5ft 8s 6s 7 11 mph 1022.3mb 50f 49f
4:50am 5.5ft 8s 6s 11 16 mph 1021.7mb 50f 50f
3:50am 6ft 8s 6s 11 16 mph 1021.4mb 50f 50f
2:50am 6.5ft 7s 6s 13 16 mph 1021.1mb 50f 49f
1:50am 6.5ft 8s 6s 13 16 mph 1020.6mb 50f 50f
12:50am 8ft 8s 6s 16 20 mph 1020.4mb 50f 49f
Mon 09/26 11:50pm 8ft 8s 6s 16 18 mph 1020.1mb 50f 49f
10:50pm 7ft 8s 6s 13 18 mph 1019.8mb 50f 50f
9:50pm 6.5ft 8s 6s 18 20 mph 1019.2mb 50f 49f
8:50pm 7ft 8s 6s 18 20 mph 1018.8mb 50f 50f
7:50pm 7ft 8s 6s 18 20 mph 1018.1mb 50f 49f
6:50pm 7.5ft 8s 6s 20 27 mph 1017.3mb 50f 50f
5:50pm 7.5ft 8s 6s 18 22 mph 1016.6mb 50f 50f
4:50pm 8.5ft 8s 6s 22 29 mph 1015.7mb 50f 50f
3:50pm 8ft 8s 6s 20 25 mph 1015mb 50f 50f
2:50pm 8ft 8s 6s 22 29 mph 1014.4mb 50f 50f
1:50pm 9ft 8s 6s 22 27 mph 1014.1mb 50f 50f
12:50pm 8ft 8s 6s 22 27 mph 1013.8mb 50f 50f
11:50am 8ft 8s 6s 20 25 mph 1013.5mb 50f 50f
10:50am 7.5ft 8s 6s 25 31 mph 1013.1mb 50f 50f
9:50am 8ft 8s 6s 25 29 mph 1012.5mb 50f 50f
8:50am 8ft 8s 6s 20 25 mph 1012.1mb 50f 50f
7:50am 8.5ft 8s 6s 20 25 mph 1012mb 50f 50f
6:50am 9ft 8s 7s 20 25 mph 1011.9mb 50f 50f
5:50am 8ft 7s 6s 22 27 mph 1011.1mb 50f 50f
4:50am 9ft 8s 6s 25 29 mph 1010.7mb 50f 50f
3:50am 9.5ft 8s 6s 27 34 mph 1010.5mb 51f 49f